Time;durP1;ratioP1;P1;durP2;ratioP2;P2;SDS_P1;SDS_P2;PMS_P1;PMS_P2;Temp;Humidity;BMP_temperature;BMP_pressure;BME280_temperature;BME280_humidity;BME280_pressure;Samples;Min_cycle;Max_cycle;Signal;HPM_P1;HPM_P2
2024/03/04 00:00:20;;;;;;;3.30;2.47;;;;;;;;;;5008512;28;20465;-81
2024/03/04 00:02:46;;;;;;;5.43;1.77;;;;;;;;;;5017650;28;20109;-81
2024/03/04 00:05:13;;;;;;;1.77;1.17;;;;;;;;;;5025782;28;20097;-81
2024/03/04 00:07:39;;;;;;;1.80;1.63;;;;;;;;;;5008349;28;20041;-81
2024/03/04 00:10:07;;;;;;;11.40;1.60;;;4.80;99.90;;;;;;5010706;28;20029;-81
2024/03/04 00:12:33;;;;;;;1.92;1.30;;;;;;;;;;5028042;28;20058;-81
2024/03/04 00:14:59;;;;;;;1.77;1.33;;;;;;;;;;5012042;28;20091;-81
2024/03/04 00:17:25;;;;;;;3.65;2.08;;;;;;;;;;5021412;28;20389;-81
2024/03/04 00:19:51;;;;;;;3.35;1.52;;;;;;;;;;5030160;28;20634;-81
2024/03/04 00:22:18;;;;;;;5.15;1.45;;;;;;;;;;5031313;28;20063;-81
2024/03/04 00:24:47;;;;;;;1.75;1.55;;;;;;;;;;5030659;28;20494;-81
2024/03/04 00:27:13;;;;;;;1.10;1.10;;;;;;;;;;5031067;28;20137;-81
2024/03/04 00:29:39;;;;;;;2.13;0.93;;;;;;;;;;5013958;28;20089;-81
2024/03/04 00:32:05;;;;;;;3.53;1.13;;;5.00;99.90;;;;;;5012035;28;20038;-81
2024/03/04 00:34:32;;;;;;;1.58;1.02;;;;;;;;;;5011229;28;20018;-81
2024/03/04 00:36:58;;;;;;;1.33;1.20;;;;;;;;;;5020179;28;20100;-81
2024/03/04 00:39:24;;;;;;;1.42;1.00;;;;;;;;;;5030708;28;20510;-81
2024/03/04 00:41:50;;;;;;;1.30;1.05;;;;;;;;;;5009359;28;20030;-81
2024/03/04 00:44:16;;;;;;;1.43;1.07;;;;;;;;;;5028013;28;20024;-81
2024/03/04 00:46:42;;;;;;;1.00;0.70;;;;;;;;;;5030977;28;20264;-81
2024/03/04 00:49:09;;;;;;;1.58;1.48;;;5.20;99.90;;;;;;5019534;28;20375;-81
2024/03/04 00:51:36;;;;;;;3.10;1.55;;;;;;;;;;5030651;28;20529;-81
2024/03/04 00:54:02;;;;;;;1.90;1.10;;;;;;;;;;5030720;28;20465;-81
2024/03/04 00:56:29;;;;;;;15.80;2.20;;;;;;;;;;5018426;28;20109;-81
2024/03/04 00:58:55;;;;;;;2.28;1.25;;;;;;;;;;5027831;28;20423;-81
2024/03/04 01:01:23;;;;;;;1.70;1.60;;;;;;;;;;5030515;28;20036;-81
2024/03/04 01:03:49;;;;;;;9.48;2.00;;;;;;;;;;5018212;28;20128;-81
2024/03/04 01:06:14;;;;;;;1.52;1.27;;;;;;;;;;5012875;28;20490;-81
2024/03/04 01:08:42;;;;;;;1.58;1.20;;;;;;;;;;5030313;28;20060;-81
2024/03/04 01:11:08;;;;;;;1.38;1.27;;;;;;;;;;5006101;28;20062;-81
2024/03/04 01:13:34;;;;;;;1.50;0.88;;;;;;;;;;5028907;28;20528;-81
2024/03/04 01:16:00;;;;;;;1.00;0.90;;;;;;;;;;5020707;28;20032;-81
2024/03/04 01:18:26;;;;;;;5.22;1.10;;;;;;;;;;5017154;28;20029;-81
2024/03/04 01:20:54;;;;;;;1.23;0.97;;;;;;;;;;5022494;28;20025;-81
2024/03/04 01:23:20;;;;;;;1.45;1.02;;;;;;;;;;5017444;28;20029;-81
2024/03/04 01:25:46;;;;;;;2.80;1.20;;;;;;;;;;4997232;28;20517;-81
2024/03/04 01:28:12;;;;;;;1.63;1.30;;;;;;;;;;5009920;28;20018;-81
2024/03/04 01:30:38;;;;;;;1.38;0.95;;;;;;;;;;4992754;28;20026;-81
2024/03/04 01:33:06;;;;;;;1.38;1.02;;;5.30;99.90;;;;;;5027355;28;20092;-81
2024/03/04 01:35:33;;;;;;;2.75;1.48;;;;;;;;;;5030701;28;20563;-81
2024/03/04 01:37:59;;;;;;;0.60;0.60;;;;;;;;;;5029622;28;20041;-81
2024/03/04 01:40:25;;;;;;;0.98;0.95;;;5.30;99.90;;;;;;5013835;28;20018;-81
2024/03/04 01:42:53;;;;;;;4.55;0.70;;;;;;;;;;5010349;28;20032;-82
2024/03/04 01:45:18;;;;;;;;;;;5.20;99.90;;;;;;5011146;28;20029;-81
2024/03/04 01:47:44;;;;;;;3.03;1.80;;;;;;;;;;4992400;28;19910;-81
2024/03/04 01:50:10;;;;;;;2.70;1.40;;;;;;;;;;5010968;28;20030;-81
2024/03/04 01:52:36;;;;;;;0.65;0.65;;;;;;;;;;5010274;28;20042;-81
2024/03/04 01:55:02;;;;;;;5.45;1.23;;;5.10;99.90;;;;;;5010705;28;20029;-81
2024/03/04 01:57:29;;;;;;;1.08;0.88;;;;;;;;;;5011507;28;20026;-80
2024/03/04 01:59:55;;;;;;;0.73;0.73;;;;;;;;;;5008905;28;20110;-81
2024/03/04 02:02:21;;;;;;;1.15;1.05;;;;;;;;;;5010935;28;20033;-80
2024/03/04 02:04:47;;;;;;;7.30;1.08;;;;;;;;;;5011225;28;20034;-81
2024/03/04 02:07:15;;;;;;;0.70;0.70;;;5.20;99.90;;;;;;5012181;28;20030;-81
2024/03/04 02:09:43;;;;;;;2.92;0.80;;;5.20;99.90;;;;;;5009658;28;20061;-80
2024/03/04 02:12:09;;;;;;;1.33;1.20;;;;;;;;;;5009248;28;20026;-80
2024/03/04 02:14:36;;;;;;;10.90;1.15;;;;;;;;;;5010786;28;20383;-80
2024/03/04 02:17:02;;;;;;;2.15;0.80;;;;;;;;;;5011453;28;20454;-80
2024/03/04 02:19:28;;;;;;;1.67;0.82;;;;;;;;;;5011235;28;20060;-80
2024/03/04 02:22:04;;;;;;;0.55;0.55;;;5.70;99.90;;;;;;4990269;28;20022;-80
2024/03/04 02:24:30;;;;;;;0.90;0.90;;;;;;;;;;5007237;28;20032;-81
2024/03/04 02:26:55;;;;;;;2.63;0.50;;;;;;;;;;5010655;28;20022;-81
2024/03/04 02:29:22;;;;;;;0.77;0.73;;;;;;;;;;5011076;28;20037;-81
2024/03/04 02:31:48;;;;;;;2.10;1.17;;;;;;;;;;5021868;28;20030;-80
2024/03/04 02:34:16;;;;;;;8.27;0.98;;;;;;;;;;5008862;28;20030;-80
2024/03/04 02:36:42;;;;;;;1.58;0.98;;;5.30;99.90;;;;;;5016771;28;20024;-80
2024/03/04 02:39:10;;;;;;;0.73;0.70;;;5.10;99.90;;;;;;5023878;28;20037;-80
2024/03/04 02:41:37;;;;;;;0.93;0.93;;;5.20;99.90;;;;;;5028955;28;20100;-81
2024/03/04 02:44:04;;;;;;;1.35;1.25;;;;;;;;;;5016156;28;20461;-81
2024/03/04 03:03:22;;;;;;;1.40;1.30;;;5.20;99.90;;;;;;2968523;28;23056;-81
2024/03/04 03:05:49;;;;;;;1.98;1.00;;;;;;;;;;5007154;28;20065;-81
2024/03/04 03:08:15;;;;;;;1.45;1.10;;;;;;;;;;5026449;28;20033;-81
2024/03/04 03:10:41;;;;;;;0.85;0.85;;;;;;;;;;5027631;28;20542;-81
2024/03/04 03:13:07;;;;;;;2.15;1.25;;;;;;;;;;5027263;28;20105;-80
2024/03/04 03:15:34;;;;;;;3.35;3.03;;;5.10;99.90;;;;;;5022898;28;20305;-81
2024/03/04 03:18:02;;;;;;;3.35;1.55;;;5.40;99.90;;;;;;5022654;28;20079;-81
2024/03/04 03:20:28;;;;;;;4.63;1.25;;;;;;;;;;5028631;28;20521;-80
2024/03/04 03:22:54;;;;;;;3.13;1.15;;;;;;;;;;5027755;28;20022;-81
2024/03/04 03:25:20;;;;;;;8.45;1.30;;;;;;;;;;5008801;28;20442;-81
2024/03/04 03:27:46;;;;;;;2.17;1.33;;;;;;;;;;5021973;28;20025;-81
2024/03/04 03:30:12;;;;;;;2.80;1.50;;;5.30;99.90;;;;;;5009215;28;20080;-80
2024/03/04 03:32:38;;;;;;;0.98;0.85;;;5.20;99.90;;;;;;5009005;28;20121;-81
2024/03/04 03:35:04;;;;;;;1.15;1.05;;;5.20;99.90;;;;;;5009225;28;20064;-81
2024/03/04 03:37:30;;;;;;;1.17;1.00;;;;;;;;;;5009027;28;20037;-81
2024/03/04 03:39:57;;;;;;;1.20;1.05;;;;;;;;;;5008305;28;20034;-81
2024/03/04 03:42:23;;;;;;;1.77;1.10;;;;;;;;;;5009017;28;20438;-81
2024/03/04 03:44:49;;;;;;;0.90;0.85;;;;;;;;;;5009192;28;20026;-80
2024/03/04 03:47:16;;;;;;;3.55;1.85;;;;;;;;;;5010810;28;20131;-80
2024/03/04 03:49:42;;;;;;;1.65;1.17;;;;;;;;;;5011808;28;20022;-81
2024/03/04 03:52:08;;;;;;;5.30;1.55;;;;;;;;;;5008580;28;20745;-81
2024/03/04 03:54:33;;;;;;;0.98;0.85;;;;;;;;;;4994289;28;20137;-81
2024/03/04 03:57:00;;;;;;;4.38;1.38;;;;;;;;;;5021540;28;20022;-81
2024/03/04 03:59:26;;;;;;;1.10;1.05;;;;;;;;;;5024602;28;20485;-80
2024/03/04 04:01:52;;;;;;;1.20;1.10;;;;;;;;;;5025171;28;20028;-81
2024/03/04 04:04:18;;;;;;;5.65;1.10;;;;;;;;;;5012097;28;20328;-81
2024/03/04 04:06:44;;;;;;;1.08;0.98;;;;;;;;;;5010859;28;20022;-81
2024/03/04 04:09:10;;;;;;;1.98;0.93;;;;;;;;;;5012048;28;20021;-81
2024/03/04 04:11:36;;;;;;;1.85;1.17;;;;;;;;;;5012348;28;20041;-80
2024/03/04 04:14:02;;;;;;;3.95;1.40;;;;;;;;;;5025703;28;20490;-81
2024/03/04 04:16:31;;;;;;;4.85;0.80;;;;;;;;;;5012212;28;20157;-80
2024/03/04 04:18:57;;;;;;;9.63;1.67;;;;;;;;;;5016080;28;20048;-81
2024/03/04 04:21:25;;;;;;;2.42;1.33;;;;;;;;;;5013962;28;20116;-81
2024/03/04 04:23:51;;;;;;;1.13;1.02;;;;;;;;;;5026464;28;20057;-81
2024/03/04 04:26:26;;;;;;;0.88;0.80;;;5.10;99.90;;;;;;5012017;28;20022;-81
2024/03/04 04:28:53;;;;;;;1.73;1.10;;;;;;;;;;5012121;28;20022;-81
2024/03/04 04:31:20;;;;;;;1.92;1.17;;;5.20;99.90;;;;;;5012535;28;20379;-81
2024/03/04 04:33:47;;;;;;;1.17;0.90;;;;;;;;;;5010145;28;20115;-81
2024/03/04 04:36:13;;;;;;;1.17;0.77;;;;;;;;;;5011595;28;20025;-81
2024/03/04 04:38:39;;;;;;;1.38;1.23;;;;;;;;;;5024006;28;20048;-81
2024/03/04 04:41:05;;;;;;;2.00;1.15;;;;;;;;;;5031192;28;20096;-81
2024/03/04 04:43:31;;;;;;;1.25;1.00;;;;;;;;;;5017519;28;20065;-81
2024/03/04 04:45:58;;;;;;;4.70;1.33;;;;;;;;;;5031145;28;20009;-81
2024/03/04 04:48:24;;;;;;;1.30;1.20;;;;;;;;;;5013174;28;20120;-81
2024/03/04 04:50:50;;;;;;;1.33;1.15;;;;;;;;;;5012853;28;20112;-81
2024/03/04 04:53:16;;;;;;;2.17;1.35;;;;;;;;;;5030942;28;20021;-80
2024/03/04 04:55:42;;;;;;;1.52;1.08;;;;;;;;;;5017718;28;20056;-81
2024/03/04 04:58:08;;;;;;;1.50;1.20;;;;;;;;;;5030658;28;20500;-81
2024/03/04 05:00:34;;;;;;;1.35;1.25;;;;;;;;;;5011108;28;20030;-80
2024/03/04 05:03:00;;;;;;;1.00;0.90;;;;;;;;;;5011204;28;20030;-81
2024/03/04 05:05:26;;;;;;;1.02;0.93;;;;;;;;;;5011204;28;20561;-81
2024/03/04 05:07:52;;;;;;;0.98;0.90;;;;;;;;;;5011403;28;20402;-81
2024/03/04 05:10:18;;;;;;;1.67;1.40;;;;;;;;;;5012312;28;20029;-81
2024/03/04 05:12:44;;;;;;;1.50;1.10;;;;;;;;;;5012010;28;20069;-81
2024/03/04 05:15:10;;;;;;;2.15;1.20;;;;;;;;;;5012944;28;20053;-81
2024/03/04 05:17:37;;;;;;;3.10;1.50;;;;;;;;;;5011913;28;20105;-81
2024/03/04 05:20:09;;;;;;;0.88;0.88;;;3.20;99.90;;;;;;5013188;28;20048;-81
2024/03/04 05:22:35;;;;;;;6.43;0.95;;;;;;;;;;5012379;28;20034;-80
2024/03/04 05:25:01;;;;;;;1.23;0.95;;;;;;;;;;5012446;28;20038;-81
2024/03/04 05:27:29;;;;;;;1.10;0.90;;;;;;;;;;5012109;28;20380;-80
2024/03/04 05:29:55;;;;;;;6.45;1.10;;;;;;;;;;5011663;28;20021;-81
2024/03/04 05:32:21;;;;;;;1.60;1.10;;;;;;;;;;5010916;28;20112;-81
2024/03/04 05:34:47;;;;;;;0.90;0.90;;;;;;;;;;4993758;28;20026;-81
2024/03/04 05:37:13;;;;;;;1.45;1.35;;;;;;;;;;5011647;28;20478;-81
2024/03/04 05:39:39;;;;;;;1.00;0.82;;;;;;;;;;5009842;28;20034;-81
2024/03/04 05:42:05;;;;;;;8.52;2.60;;;;;;;;;;5010838;28;20029;-81
2024/03/04 05:44:31;;;;;;;1.10;0.88;;;;;;;;;;5010825;28;20105;-81
2024/03/04 05:46:57;;;;;;;0.90;0.80;;;;;;;;;;5010274;28;20583;-81
2024/03/04 05:49:23;;;;;;;5.32;1.77;;;;;;;;;;5010897;28;20108;-80
2024/03/04 05:51:50;;;;;;;2.33;2.00;;;;;;;;;;5010536;28;20486;-80
2024/03/04 05:54:15;;;;;;;3.13;1.98;;;4.90;99.90;;;;;;5010725;28;20069;-80
2024/03/04 05:56:43;;;;;;;1.20;1.10;;;4.90;99.90;;;;;;5021695;28;20054;-81
2024/03/04 05:59:09;;;;;;;5.72;1.80;;;4.90;99.90;;;;;;5020808;28;20044;-80
2024/03/04 06:01:36;;;;;;;1.57;1.47;;;4.90;99.90;;;;;;5008857;28;20494;-80
2024/03/04 06:04:02;;;;;;;1.83;1.23;;;4.60;99.90;;;;;;5010328;28;20054;-80
2024/03/04 06:06:28;;;;;;;3.50;2.58;;;;;;;;;;5010103;28;20087;-80
2024/03/04 06:08:56;;;;;;;2.22;1.48;;;;;;;;;;5010422;28;20606;-80
2024/03/04 06:11:22;;;;;;;2.13;1.92;;;;;;;;;;5008961;28;20467;-81
2024/03/04 06:13:48;;;;;;;2.10;1.90;;;;;;;;;;5010449;28;20087;-81
2024/03/04 06:16:14;;;;;;;2.08;1.67;;;;;;;;;;5010016;28;20034;-80
2024/03/04 06:18:41;;;;;;;3.75;1.73;;;;;;;;;;5020073;28;20037;-81
2024/03/04 06:21:07;;;;;;;2.50;2.30;;;;;;;;;;5017785;28;20116;-80
2024/03/04 06:23:33;;;;;;;2.17;1.42;;;;;;;;;;5019938;28;20589;-80
2024/03/04 06:25:59;;;;;;;9.48;1.85;;;;;;;;;;5017410;28;20022;-81
2024/03/04 06:28:25;;;;;;;2.92;1.88;;;;;;;;;;5018600;28;20498;-83
2024/03/04 06:30:51;;;;;;;3.47;2.35;;;;;;;;;;5011268;28;20030;-83
2024/03/04 06:33:17;;;;;;;5.88;2.25;;;;;;;;;;5007876;28;20032;-83
2024/03/04 06:35:43;;;;;;;3.47;2.22;;;;;;;;;;5008774;28;20083;-83
2024/03/04 06:38:12;;;;;;;1.90;1.33;;;5.10;99.90;;;;;;5014416;28;20502;-83
2024/03/04 06:40:38;;;;;;;4.78;1.52;;;;;;;;;;5011165;28;20326;-83
2024/03/04 06:43:04;;;;;;;2.00;1.90;;;;;;;;;;5030762;28;20046;-83
2024/03/04 06:45:30;;;;;;;4.30;1.40;;;;;;;;;;5025179;28;20030;-83
2024/03/04 06:48:01;;;;;;;3.30;2.08;;;;;;;;;;5012563;28;20491;-83
2024/03/04 06:50:28;;;;;;;3.38;1.90;;;;;;;;;;5010912;28;20116;-81
2024/03/04 06:52:54;;;;;;;1.45;1.35;;;;;;;;;;5014808;28;20034;-82
2024/03/04 06:55:20;;;;;;;1.15;1.13;;;;;;;;;;5015347;28;20045;-82
2024/03/04 06:57:46;;;;;;;10.68;3.25;;;5.30;99.90;;;;;;5016876;28;20032;-77
2024/03/04 07:00:13;;;;;;;0.98;0.88;;;5.20;99.90;;;;;;5008981;28;20033;-77
2024/03/04 07:02:39;;;;;;;2.25;1.83;;;;;;;;;;5026635;28;20021;-77
2024/03/04 07:05:06;;;;;;;7.75;2.70;;;;;;;;;;5024382;28;20532;-77
2024/03/04 07:07:32;;;;;;;2.03;1.83;;;5.40;99.90;;;;;;5025868;28;20028;-77
2024/03/04 07:09:59;;;;;;;5.13;2.97;;;;;;;;;;5023178;28;20037;-77
2024/03/04 07:12:25;;;;;;;;;;;5.40;99.50;;;;;;5026570;28;20029;-77
2024/03/04 07:14:51;;;;;;;5.13;3.80;;;;;;;;;;5024993;28;19911;-77
2024/03/04 07:17:17;;;;;;;7.97;3.13;;;;;;;;;;5017279;28;20025;-77
2024/03/04 07:19:43;;;;;;;5.88;3.63;;;;;;;;;;5024728;28;20116;-77
2024/03/04 07:22:09;;;;;;;2.13;1.70;;;;;;;;;;5027997;28;20119;-77
2024/03/04 07:24:35;;;;;;;3.95;2.38;;;;;;;;;;5031265;28;20029;-77
2024/03/04 07:27:01;;;;;;;1.63;1.40;;;;;;;;;;5029893;28;20034;-77
2024/03/04 07:29:27;;;;;;;2.22;1.73;;;;;;;;;;5015422;28;20036;-78
2024/03/04 07:31:53;;;;;;;9.75;3.22;;;;;;;;;;4993090;28;20347;-77
2024/03/04 07:34:28;;;;;;;3.78;2.78;;;;;;;;;;4985820;28;20029;-78
2024/03/04 07:36:57;;;;;;;3.30;1.65;;;;;;;;;;4995884;28;20042;-78
2024/03/04 07:39:23;;;;;;;5.88;1.92;;;;;;;;;;5016394;28;20457;-83
2024/03/04 07:41:49;;;;;;;1.98;1.70;;;;;;;;;;5013431;28;20040;-82
2024/03/04 07:44:17;;;;;;;3.47;2.00;;;;;;;;;;5012990;28;20030;-88
2024/03/04 07:46:44;;;;;;;7.43;2.28;;;;;;;;;;5015249;28;20321;-82
2024/03/04 07:49:10;;;;;;;2.35;1.60;;;;;;;;;;5016402;28;20033;-83
2024/03/04 07:51:36;;;;;;;4.53;2.60;;;;;;;;;;5018790;28;20033;-82
2024/03/04 07:54:01;;;;;;;2.20;1.88;;;;;;;;;;5010431;28;20486;-85
2024/03/04 07:56:30;;;;;;;2.03;1.83;;;;;;;;;;5013105;28;20026;-83
2024/03/04 07:58:56;;;;;;;2.17;1.90;;;;;;;;;;5014585;28;20550;-80
2024/03/04 08:01:22;;;;;;;13.75;2.42;;;;;;;;;;4995481;28;20033;-80
2024/03/04 08:03:48;;;;;;;9.15;2.38;;;;;;;;;;5012290;28;20077;-79
2024/03/04 08:06:14;;;;;;;5.18;1.40;;;;;;;;;;5015099;28;20030;-80
2024/03/04 08:08:40;;;;;;;5.93;1.67;;;;;;;;;;5014295;28;20029;-79
2024/03/04 08:11:13;;;;;;;5.07;1.90;;;6.70;94.90;;;;;;5013851;28;20025;-79
2024/03/04 08:13:39;;;;;;;1.60;1.50;;;;;;;;;;5006553;23;20049;-80
2024/03/04 08:16:05;;;;;;;2.10;1.75;;;;;;;;;;5051088;28;20415;-80
2024/03/04 08:18:31;;;;;;;3.85;2.67;;;;;;;;;;5068436;28;20556;-81
2024/03/04 08:20:57;;;;;;;2.90;2.00;;;;;;;;;;5056905;28;20095;-80
2024/03/04 08:23:23;;;;;;;4.90;3.50;;;;;;;;;;5051883;28;20033;-81
2024/03/04 08:25:50;;;;;;;5.78;3.03;;;;;;;;;;5065087;28;20078;-83
2024/03/04 08:28:16;;;;;;;6.20;2.47;;;;;;;;;;5066941;28;20021;-80
2024/03/04 08:30:42;;;;;;;3.88;2.60;;;;;;;;;;5064393;28;20056;-80
2024/03/04 08:33:08;;;;;;;5.35;2.03;;;;;;;;;;5067050;28;20021;-85
2024/03/04 08:35:34;;;;;;;4.57;2.00;;;;;;;;;;5056410;28;20029;-78
2024/03/04 08:38:00;;;;;;;4.63;3.25;;;;;;;;;;5066056;28;20029;-77
2024/03/04 08:40:31;;;;;;;3.88;2.25;;;;;;;;;;5052341;28;20104;-77
2024/03/04 08:42:57;;;;;;;5.70;2.35;;;;;;;;;;5059658;28;20029;-79
2024/03/04 08:45:23;;;;;;;12.23;3.22;;;;;;;;;;5033333;28;20099;-80
2024/03/04 08:47:49;;;;;;;10.40;3.72;;;;;;;;;;5048353;28;20039;-80
2024/03/04 08:50:15;;;;;;;5.50;2.95;;;;;;;;;;5050065;28;20009;-80
2024/03/04 08:52:41;;;;;;;4.68;2.05;;;;;;;;;;5039494;28;20032;-77
2024/03/04 08:55:12;;;;;;;8.80;2.63;;;;;;;;;;5037776;28;20024;-77
2024/03/04 08:57:38;;;;;;;2.38;2.17;;;;;;;;;;5040218;28;20037;-79
2024/03/04 09:00:07;;;;;;;2.35;2.00;;;;;;;;;;5065919;28;20063;-79
2024/03/04 09:02:33;;;;;;;3.20;2.25;;;;;;;;;;5063964;28;20060;-85
2024/03/04 09:04:58;;;;;;;6.93;2.08;;;;;;;;;;5053989;28;20071;-79
2024/03/04 09:07:27;;;;;;;2.28;2.00;;;9.10;88.20;;;;;;5060861;28;20033;-79
2024/03/04 09:09:53;;;;;;;4.40;1.92;;;;;;;;;;5066929;28;20180;-79
2024/03/04 09:12:20;;;;;;;2.53;1.80;;;9.80;82.00;;;;;;5055244;28;20025;-79
2024/03/04 09:14:46;;;;;;;4.10;2.80;;;;;;;;;;5062178;28;20040;-78
2024/03/04 09:17:12;;;;;;;2.95;2.00;;;;;;;;;;5048964;28;20055;-78
2024/03/04 09:19:41;;;;;;;3.15;2.33;;;;;;;;;;5066053;28;20047;-79
2024/03/04 09:22:07;;;;;;;2.78;2.22;;;;;;;;;;5067060;28;20024;-80
2024/03/04 09:24:33;;;;;;;2.97;1.75;;;;;;;;;;5060189;28;20033;-79
2024/03/04 09:27:05;;;;;;;6.68;1.67;;;10.50;75.70;;;;;;5058884;28;20033;-80
2024/03/04 09:29:32;;;;;;;3.05;2.15;;;;;;;;;;5048066;28;20036;-78
2024/03/04 09:31:57;;;;;;;2.63;1.83;;;10.90;93.00;;;;;;5066904;28;20028;-78
2024/03/04 09:34:23;;;;;;;3.85;2.55;;;;;;;;;;5051127;28;20125;-78
2024/03/04 09:36:49;;;;;;;6.03;2.38;;;11.00;83.00;;;;;;5060413;28;20029;-77
2024/03/04 09:39:17;;;;;;;33.45;10.32;;;;;;;;;;5067163;28;20036;-75
2024/03/04 09:41:48;;;;;;;7.57;4.80;;;;;;;;;;5059040;28;20575;-76
2024/03/04 09:44:14;;;;;;;28.67;13.05;;;11.10;72.30;;;;;;5057841;28;20047;-76
2024/03/04 09:46:40;;;;;;;8.18;4.40;;;;;;;;;;5066148;28;20455;-76
2024/03/04 09:49:09;;;;;;;29.10;11.18;;;;;;;;;;5065458;28;20036;-75
2024/03/04 09:51:36;;;;;;;8.15;4.43;;;11.50;70.40;;;;;;5047367;28;20105;-77
2024/03/04 09:54:03;;;;;;;5.93;3.75;;;11.70;80.00;;;;;;5052239;28;20036;-83
2024/03/04 09:56:34;;;;;;;6.50;3.92;;;;;;;;;;5054847;28;20094;-77
2024/03/04 09:59:10;;;;;;;6.22;4.18;;;;;;;;;;5063861;28;20095;-80
2024/03/04 10:01:39;;;;;;;6.75;3.90;;;;;;;;;;5045299;28;20497;-77
2024/03/04 10:04:06;;;;;;;6.70;3.92;;;;;;;;;;5060407;28;20028;-82
2024/03/04 10:06:32;;;;;;;17.15;6.47;;;;;;;;;;5065628;28;20020;-82
2024/03/04 10:08:58;;;;;;;5.07;3.83;;;;;;;;;;5063735;28;20036;-83
2024/03/04 10:11:34;;;;;;;5.43;3.00;;;;;;;;;;5065998;28;20024;-82
2024/03/04 10:14:05;;;;;;;2.28;1.60;;;;;;;;;;5034688;28;20110;-77
2024/03/04 10:16:37;;;;;;;3.92;1.52;;;15.00;61.40;;;;;;5067475;28;20032;-77
2024/03/04 10:19:07;;;;;;;10.57;1.65;;;15.40;60.00;;;;;;5053236;28;20515;-77
2024/03/04 10:21:34;;;;;;;5.20;1.95;;;;;;;;;;5037757;28;20087;-85
2024/03/04 10:24:09;;;;;;;3.75;2.20;;;;;;;;;;5058223;28;20496;-83
2024/03/04 10:26:50;;;;;;;5.03;1.98;;;;;;;;;;5049701;28;20386;-81
2024/03/04 10:29:18;;;;;;;2.45;1.33;;;;;;;;;;5052058;28;20505;-81
2024/03/04 10:31:53;;;;;;;2.33;1.38;;;16.40;55.90;;;;;;5061544;28;20025;-83
2024/03/04 10:34:20;;;;;;;1.95;1.42;;;16.50;55.40;;;;;;5055483;28;20500;-80
2024/03/04 10:36:50;;;;;;;2.08;1.83;;;;;;;;;;5056904;28;20194;-81
2024/03/04 10:39:17;;;;;;;2.80;1.65;;;;;;;;;;5042991;28;20131;-80
2024/03/04 10:41:48;;;;;;;3.40;1.95;;;16.40;54.60;;;;;;5063689;28;20374;-79
2024/03/04 10:44:26;;;;;;;2.63;1.92;;;16.20;54.50;;;;;;5056472;28;20020;-83
2024/03/04 10:46:56;;;;;;;2.35;1.90;;;16.30;72.50;;;;;;5053742;28;20029;-80
2024/03/04 10:49:27;;;;;;;8.32;4.32;;;16.60;54.30;;;;;;5052585;28;20082;-83
2024/03/04 10:51:53;;;;;;;3.00;2.47;;;;;;;;;;5057096;28;20513;-83
2024/03/04 10:54:22;;;;;;;1.75;1.10;;;;;;;;;;5054331;28;20032;-80
2024/03/04 10:57:01;;;;;;;5.28;2.05;;;16.50;52.20;;;;;;5064781;28;20104;-81
2024/03/04 10:59:37;;;;;;;2.00;1.80;;;16.60;52.60;;;;;;5065142;28;20109;-82
2024/03/04 11:02:18;;;;;;;7.50;2.47;;;16.50;50.10;;;;;;5066939;28;20077;-80
2024/03/04 11:04:45;;;;;;;2.00;1.83;;;16.00;49.90;;;;;;5053888;28;20046;-79
2024/03/04 11:07:11;;;;;;;3.30;1.90;;;15.70;72.00;;;;;;5063772;28;20116;-79
2024/03/04 11:09:49;;;;;;;4.95;2.45;;;15.50;51.90;;;;;;5045342;28;20040;-80
2024/03/04 11:12:16;;;;;;;;;;;15.60;51.80;;;;;;5052850;28;20044;-79
2024/03/04 11:14:52;;;;;;;3.85;1.52;;;15.40;50.40;;;;;;5052332;28;19921;-79
2024/03/04 11:17:21;;;;;;;1.90;1.15;;;14.90;50.90;;;;;;5033316;28;20080;-79
2024/03/04 11:19:51;;;;;;;3.10;1.45;;;14.70;51.90;;;;;;5056301;28;20032;-79
2024/03/04 11:22:18;;;;;;;2.33;1.50;;;14.60;72.80;;;;;;5064551;28;20031;-79
2024/03/04 11:24:46;;;;;;;2.88;1.40;;;;;;;;;;5058752;28;20504;-79
2024/03/04 11:27:14;;;;;;;1.98;1.65;;;14.50;53.10;;;;;;5062991;28;20036;-79
2024/03/04 11:29:40;;;;;;;1.67;1.48;;;;;;;;;;5061291;28;20597;-79
2024/03/04 11:32:09;;;;;;;2.67;2.10;;;;;;;;;;5058113;28;20052;-79
2024/03/04 11:35:11;;;;;;;1.85;1.42;;;14.30;52.90;;;;;;5051644;28;20012;-78
2024/03/04 11:38:04;;;;;;;0.98;0.98;;;14.20;52.00;;;;;;5038408;28;20041;-79
2024/03/04 11:40:30;;;;;;;1.10;1.00;;;;;;;;;;5064172;28;20139;-79
2024/03/04 11:42:56;;;;;;;1.67;1.58;;;;;;;;;;5044571;28;20044;-79
2024/03/04 11:45:31;;;;;;;2.05;1.02;;;14.50;52.00;;;;;;5052223;28;20043;-79
2024/03/04 11:47:57;;;;;;;1.02;0.82;;;;;;;;;;5058546;28;20029;-79
2024/03/04 11:50:46;;;;;;;1.35;0.70;;;14.80;51.10;;;;;;5062190;28;20031;-79
2024/03/04 11:53:28;;;;;;;0.65;0.65;;;14.00;54.90;;;;;;5058621;28;20028;-79
2024/03/04 11:55:54;;;;;;;2.05;0.82;;;14.00;53.20;;;;;;5049929;28;20040;-79
2024/03/04 11:58:21;;;;;;;0.80;0.70;;;13.90;53.10;;;;;;5062144;28;20393;-79
2024/03/04 12:00:48;;;;;;;1.20;1.10;;;14.00;52.70;;;;;;5051822;28;20021;-79
2024/03/04 12:03:14;;;;;;;0.80;0.80;;;;;;;;;;5061866;28;20272;-79
2024/03/04 12:05:41;;;;;;;1.55;1.45;;;;;;;;;;5058247;28;20018;-79
2024/03/04 12:08:11;;;;;;;1.48;1.20;;;13.60;52.40;;;;;;5061110;28;20033;-79
2024/03/04 12:10:37;;;;;;;1.80;1.13;;;;;;;;;;5061010;28;20021;-79
2024/03/04 12:13:03;;;;;;;1.83;1.58;;;;;;;;;;5038813;28;20025;-79
2024/03/04 12:15:29;;;;;;;3.40;1.67;;;;;;;;;;5058184;28;20076;-78
2024/03/04 12:17:56;;;;;;;0.95;0.95;;;;;;;;;;5063397;28;20029;-79
2024/03/04 12:20:24;;;;;;;1.42;1.30;;;;;;;;;;5060386;28;20117;-78
2024/03/04 12:22:53;;;;;;;1.70;1.58;;;;;;;;;;5042420;28;20024;-78
2024/03/04 12:25:26;;;;;;;1.00;0.90;;;13.40;52.70;;;;;;5061063;28;20040;-79
2024/03/04 12:27:55;;;;;;;1.55;1.27;;;13.50;74.10;;;;;;5072647;28;20488;-79
2024/03/04 12:30:23;;;;;;;6.05;1.55;;;13.50;52.80;;;;;;5069287;28;20055;-79
2024/03/04 12:32:49;;;;;;;;;;;13.50;53.40;;;;;;5065323;28;20089;-77
2024/03/04 12:35:26;;;;;;;1.50;1.30;;;13.70;53.20;;;;;;5051592;28;19904;-80
2024/03/04 12:37:56;;;;;;;6.72;3.25;;;13.70;74.20;;;;;;5074081;28;20034;-81
2024/03/04 12:40:23;;;;;;;12.52;5.70;;;13.40;52.40;;;;;;5059326;28;20037;-81
2024/03/04 12:42:53;;;;;;;;;;;13.40;53.00;;;;;;5064748;28;20035;-80
2024/03/04 12:45:19;;;;;;;6.38;3.60;;;;;;;;;;5057489;28;19950;-81
2024/03/04 12:47:45;;;;;;;4.18;2.20;;;13.20;53.20;;;;;;5063547;28;20020;-80
2024/03/04 12:50:11;;;;;;;8.38;3.45;;;;;;;;;;5067950;28;20051;-80
2024/03/04 12:52:39;;;;;;;3.67;3.33;;;13.30;53.20;;;;;;5068765;28;20492;-80
2024/03/04 12:55:14;;;;;;;1.70;1.58;;;13.10;52.90;;;;;;5046420;28;20056;-82
2024/03/04 12:57:40;;;;;;;1.75;1.48;;;;;;;;;;5059376;28;20035;-85
2024/03/04 13:00:12;;;;;;;2.15;1.85;;;12.70;66.20;;;;;;5052582;28;20045;-84
2024/03/04 13:02:38;;;;;;;2.88;1.85;;;;;;;;;;5054604;28;20013;-86
2024/03/04 13:05:04;;;;;;;3.03;2.17;;;;;;;;;;5051976;28;20075;-84
2024/03/04 13:07:30;;;;;;;2.15;1.50;;;;;;;;;;5066421;28;20079;-78
2024/03/04 13:09:57;;;;;;;4.63;1.40;;;;;;;;;;5059708;28;20076;-81
2024/03/04 13:12:23;;;;;;;2.25;1.85;;;;;;;;;;5060767;28;20141;-81
2024/03/04 13:14:49;;;;;;;2.28;2.08;;;;;;;;;;5056136;28;20045;-82
2024/03/04 13:17:15;;;;;;;2.10;1.65;;;;;;;;;;5056887;28;20043;-81
2024/03/04 13:19:41;;;;;;;1.15;1.13;;;12.60;65.00;;;;;;5060488;28;20124;-83
2024/03/04 13:22:07;;;;;;;2.05;1.23;;;;;;;;;;5067389;28;20473;-81
2024/03/04 13:24:33;;;;;;;1.35;1.25;;;;;;;;;;5061921;28;20021;-81
2024/03/04 13:26:59;;;;;;;1.70;0.88;;;;;;;;;;5064148;28;20040;-83
2024/03/04 13:29:25;;;;;;;2.75;1.60;;;;;;;;;;5055641;28;20337;-82
2024/03/04 13:31:51;;;;;;;1.42;1.33;;;;;;;;;;5052249;28;20156;-82
2024/03/04 13:34:17;;;;;;;1.50;1.40;;;;;;;;;;5054788;28;20422;-82
2024/03/04 13:36:43;;;;;;;1.85;1.42;;;;;;;;;;5054299;28;20056;-78
2024/03/04 13:39:10;;;;;;;3.92;1.23;;;;;;;;;;5063796;28;20036;-82
2024/03/04 13:41:36;;;;;;;2.42;1.35;;;;;;;;;;5057820;28;20029;-80
2024/03/04 13:44:03;;;;;;;1.17;1.08;;;11.60;56.90;;;;;;5056117;28;20040;-83
2024/03/04 13:46:29;;;;;;;2.78;1.58;;;;;;;;;;5063480;28;20032;-84
2024/03/04 13:48:55;;;;;;;1.40;1.25;;;;;;;;;;5058847;28;20037;-79
2024/03/04 13:51:21;;;;;;;2.63;1.33;;;;;;;;;;5047358;28;20033;-78
2024/03/04 13:53:47;;;;;;;5.40;1.38;;;;;;;;;;5051548;28;20405;-80
2024/03/04 13:56:13;;;;;;;1.70;1.60;;;;;;;;;;5053031;28;20031;-77
2024/03/04 13:58:39;;;;;;;2.50;1.38;;;;;;;;;;5062333;28;20123;-78
2024/03/04 14:01:05;;;;;;;3.92;2.65;;;;;;;;;;5061541;28;20024;-78
2024/03/04 14:03:31;;;;;;;3.03;1.92;;;;;;;;;;5049186;28;20033;-78
2024/03/04 14:05:57;;;;;;;1.88;1.50;;;;;;;;;;5053870;28;20025;-78
2024/03/04 14:08:24;;;;;;;3.10;1.65;;;;;;;;;;5065795;28;20028;-78
2024/03/04 14:10:50;;;;;;;2.38;1.63;;;;;;;;;;5061168;28;20086;-77
2024/03/04 14:13:16;;;;;;;2.35;1.42;;;;;;;;;;5054672;28;20443;-78
2024/03/04 14:15:46;;;;;;;7.18;1.83;;;;;;;;;;5046236;28;20111;-77
2024/03/04 14:18:12;;;;;;;3.42;1.83;;;;;;;;;;5068023;28;20044;-82
2024/03/04 14:20:38;;;;;;;1.83;1.65;;;;;;;;;;5045861;28;20060;-81
2024/03/04 14:23:04;;;;;;;1.48;1.08;;;;;;;;;;5058844;28;20111;-85
2024/03/04 14:25:30;;;;;;;3.85;1.75;;;;;;;;;;5064115;28;20040;-83
2024/03/04 14:27:56;;;;;;;2.58;1.80;;;;;;;;;;5068389;28;20028;-79
2024/03/04 14:30:22;;;;;;;1.92;1.60;;;11.00;79.40;;;;;;5060631;28;20410;-78